Startpagina
METAR-TAF:

METAR-TAF

Vliegvelden :

Jinotega, Nicaragua

breedte: 13-05N, lengte: 085-59W, hoogte: 985 m

Actueel weer

Dit bericht is 1 uur en het 9 minuten geleden gemaakt, om 12:00 UTC
Wind 8 kt uit het noorden
Temperatuur 20°C
Vochtigheid 94%
Druk 1013 hPa
Zicht: 3000 m
Gebroken wolken op 1600 ft
nevel

METAR: MNJG 231200Z 36008KT 3000 BR BKN016 20/19 Q1013

Tijdstip: 07:09 (13:09 UTC)


TAF: ontbreekt

Waarnemingen en weersverwachtingen van meer dan 4000 vliegvelden (METAR en TAF).

De beschikbare stations zijn de gele en rode punten op de kaart.

Ga met uw muis naar het station om de naam te zien.

Klik dan om waarnemingen en weersverwachtingen te zien.

kaart wijzigen: klik op de groene knoppen met een zwart kruis om in te zoomen, op de groene knop met een streepje om uit te zoomen of op de groene pijlen voor aangrenzende kaarten.


METAR-TAF: